Time;durP1;ratioP1;P1;durP2;ratioP2;P2;SDS_P1;SDS_P2;PMS_P1;PMS_P2;Temp;Humidity;BMP_temperature;BMP_pressure;BME280_temperature;BME280_humidity;BME280_pressure;Samples;Min_cycle;Max_cycle;Signal;HPM_P1;HPM_P2
2022/11/28 00:01:48;;;;;;;11.00;8.30;;;6.30;1.00;;;;;;5096060;28;20593;-73
2022/11/28 00:04:14;;;;;;;12.67;8.93;;;6.30;1.00;;;;;;5095378;28;20165;-71
2022/11/28 00:06:47;;;;;;;13.93;9.00;;;6.30;1.00;;;;;;5095981;28;20419;-70
2022/11/28 00:09:14;;;;;;;8.77;7.43;;;6.40;1.00;;;;;;5095912;28;20556;-69
2022/11/28 00:11:42;;;;;;;10.47;8.47;;;6.30;1.00;;;;;;5095784;28;20408;-72
2022/11/28 00:14:09;;;;;;;9.37;8.30;;;6.40;1.00;;;;;;5095063;28;20399;-69
2022/11/28 00:16:35;;;;;;;9.67;7.60;;;6.40;1.00;;;;;;5095691;28;20780;-70
2022/11/28 00:19:02;;;;;;;14.47;7.30;;;6.30;1.00;;;;;;5095758;28;20395;-70
2022/11/28 00:21:29;;;;;;;13.00;8.10;;;6.30;1.00;;;;;;5095737;28;20795;-73
2022/11/28 00:23:55;;;;;;;9.37;7.83;;;6.30;1.00;;;;;;5094938;28;20447;-70
2022/11/28 00:26:32;;;;;;;14.67;7.20;;;6.30;1.00;;;;;;5095437;28;20824;-70
2022/11/28 00:28:59;;;;;;;10.77;8.60;;;6.30;1.00;;;;;;5095555;28;20192;-72
2022/11/28 00:31:31;;;;;;;10.13;7.63;;;6.30;1.00;;;;;;5095425;28;20406;-70
2022/11/28 00:33:57;;;;;;;11.70;7.87;;;6.30;1.00;;;;;;5094854;28;20457;-70
2022/11/28 00:36:23;;;;;;;10.80;6.90;;;6.30;1.00;;;;;;5095351;28;20479;-70
2022/11/28 00:38:49;;;;;;;13.77;7.80;;;6.30;1.00;;;;;;5095504;28;20161;-72
2022/11/28 00:41:27;;;;;;;9.77;7.33;;;6.40;1.00;;;;;;5094111;28;20796;-72
2022/11/28 00:43:54;;;;;;;8.27;7.47;;;6.30;1.00;;;;;;5094625;28;20453;-73
2022/11/28 00:46:21;;;;;;;11.83;7.70;;;6.30;1.00;;;;;;5095116;28;20927;-71
2022/11/28 00:48:47;;;;;;;10.70;7.57;;;6.40;1.00;;;;;;5094894;28;20420;-73
2022/11/28 00:51:15;;;;;;;14.83;7.23;;;6.30;1.00;;;;;;5095117;28;20914;-73
2022/11/28 00:53:42;;;;;;;7.27;6.30;;;6.30;1.00;;;;;;5093147;28;20408;-70
2022/11/28 00:56:13;;;;;;;10.13;7.83;;;6.30;1.00;;;;;;5095046;28;20419;-71
2022/11/28 00:58:39;;;;;;;13.13;7.80;;;6.30;1.00;;;;;;5095093;28;20403;-72
2022/11/28 01:01:16;;;;;;;7.70;5.97;;;6.30;1.00;;;;;;5094994;28;20403;-70
2022/11/28 01:03:42;;;;;;;9.73;6.30;;;6.30;1.00;;;;;;5094284;28;20404;-73
2022/11/28 01:06:09;;;;;;;11.00;6.83;;;6.30;1.00;;;;;;5094904;28;20477;-73
2022/11/28 01:08:36;;;;;;;8.93;6.47;;;6.30;1.00;;;;;;5093533;28;20827;-72
2022/11/28 01:11:02;;;;;;;8.23;7.00;;;6.30;1.00;;;;;;5094764;28;20803;-72
2022/11/28 01:13:28;;;;;;;7.97;5.60;;;6.30;1.00;;;;;;5094629;28;20565;-73
2022/11/28 01:15:54;;;;;;;8.17;5.70;;;6.30;1.00;;;;;;5094190;28;20683;-72
2022/11/28 01:18:20;;;;;;;6.33;5.70;;;6.30;1.00;;;;;;5094581;28;20391;-72
2022/11/28 01:20:46;;;;;;;12.87;6.47;;;6.30;1.00;;;;;;5094678;28;20569;-72
2022/11/28 01:23:11;;;;;;;10.60;6.40;;;6.30;1.00;;;;;;5094568;28;20226;-72
2022/11/28 01:25:37;;;;;;;5.83;5.30;;;6.30;1.00;;;;;;5093825;28;20205;-72
2022/11/28 01:28:03;;;;;;;11.57;6.07;;;6.30;1.00;;;;;;5094322;28;20216;-70
2022/11/28 01:30:29;;;;;;;7.07;6.33;;;6.30;1.00;;;;;;5094285;28;20201;-70
2022/11/28 01:32:55;;;;;;;6.00;5.23;;;6.30;1.00;;;;;;5094322;28;20404;-71
2022/11/28 01:35:20;;;;;;;6.00;5.40;;;6.30;1.00;;;;;;5093752;28;20165;-70
2022/11/28 01:37:46;;;;;;;7.90;5.70;;;6.40;1.00;;;;;;5092947;28;20203;-73
2022/11/28 01:40:12;;;;;;;8.67;6.40;;;6.40;1.00;;;;;;5094444;28;20173;-70
2022/11/28 01:42:38;;;;;;;7.40;6.00;;;6.40;1.00;;;;;;5094155;28;20187;-71
2022/11/28 01:45:24;;;;;;;8.03;6.17;;;6.40;1.00;;;;;;5093265;28;20904;-73
2022/11/28 01:47:52;;;;;;;8.17;6.10;;;6.30;1.00;;;;;;5094049;28;20193;-70
2022/11/28 01:50:21;;;;;;;5.47;4.90;;;6.40;99.90;;;;;;5093931;28;20489;-72
2022/11/28 01:52:51;;;;;;;11.33;6.20;;;6.40;99.90;;;;;;5093992;28;20453;-70
2022/11/28 01:55:21;;;;;;;8.87;6.10;;;6.40;99.90;;;;;;5093400;28;20414;-72
2022/11/28 01:57:47;;;;;;;6.77;6.20;;;6.40;99.90;;;;;;5093818;28;20462;-70
2022/11/28 02:00:16;;;;;;;8.03;6.53;;;6.40;99.90;;;;;;5093885;28;20439;-71
2022/11/28 02:02:52;;;;;;;9.67;6.83;;;6.50;99.90;;;;;;5093795;28;20210;-73
2022/11/28 02:05:20;;;;;;;8.00;5.77;;;6.40;99.90;;;;;;5092808;28;20607;-72
2022/11/28 02:07:46;;;;;;;8.90;6.20;;;6.40;99.90;;;;;;5093656;28;20443;-72
2022/11/28 02:10:21;;;;;;;12.53;6.47;;;6.40;99.90;;;;;;5093657;28;20491;-71
2022/11/28 02:13:10;;;;;;;8.77;6.50;;;6.50;99.90;;;;;;5092372;28;20399;-71
2022/11/28 02:16:05;;;;;;;7.67;5.90;;;6.50;99.90;;;;;;5092895;28;20399;-71
2022/11/28 02:18:43;;;;;;;7.30;5.97;;;6.50;99.90;;;;;;5092078;28;20416;-73
2022/11/28 02:21:29;;;;;;;11.00;6.60;;;6.40;99.90;;;;;;5092965;28;20443;-71
2022/11/28 02:24:06;;;;;;;8.40;5.67;;;6.40;99.90;;;;;;5092814;28;20872;-72
2022/11/28 02:26:58;;;;;;;7.13;5.10;;;6.40;99.90;;;;;;5092065;28;20958;-72
2022/11/28 02:29:54;;;;;;;6.63;5.77;;;6.30;99.90;;;;;;5093561;28;20470;-70
2022/11/28 02:32:23;;;;;;;6.90;6.20;;;6.30;99.90;;;;;;5093365;28;20399;-70
2022/11/28 02:34:58;;;;;;;12.83;6.10;;;6.40;99.90;;;;;;5092760;28;20799;-72
2022/11/28 02:37:42;;;;;;;13.50;6.00;;;6.40;99.90;;;;;;5093256;28;20406;-70
2022/11/28 02:40:22;;;;;;;7.07;6.10;;;6.40;99.90;;;;;;5093172;28;20884;-72
2022/11/28 02:43:00;;;;;;;6.70;6.10;;;6.40;99.90;;;;;;5093329;28;20488;-73
2022/11/28 02:45:37;;;;;;;6.67;6.07;;;6.40;99.90;;;;;;5091381;28;20407;-70
2022/11/28 02:48:09;;;;;;;5.40;4.90;;;6.30;99.90;;;;;;5092205;28;20437;-71
2022/11/28 02:50:54;;;;;;;7.30;5.57;;;6.30;99.90;;;;;;5093016;28;20451;-70
2022/11/28 02:53:23;;;;;;;7.30;6.30;;;6.30;99.90;;;;;;5092002;28;20422;-73
2022/11/28 02:55:51;;;;;;;7.00;5.17;;;6.30;99.90;;;;;;5091575;28;20523;-72
2022/11/28 02:58:17;;;;;;;13.90;5.80;;;6.30;99.90;;;;;;5092856;28;20799;-73
2022/11/28 03:00:45;;;;;;;7.20;5.57;;;6.30;99.90;;;;;;5093472;28;20545;-70
2022/11/28 03:03:35;;;;;;;10.17;6.50;;;6.20;99.90;;;;;;5091955;28;20411;-70
2022/11/28 03:06:23;;;;;;;8.93;6.20;;;6.20;99.90;;;;;;5091324;28;20431;-70
2022/11/28 03:08:55;;;;;;;6.23;5.60;;;6.20;99.90;;;;;;5091730;28;20415;-72
2022/11/28 03:11:39;;;;;;;10.93;5.17;;;6.20;99.90;;;;;;5091607;28;20494;-71
2022/11/28 03:14:37;;;;;;;10.53;6.53;;;6.20;99.90;;;;;;5092305;28;20395;-72
2022/11/28 03:17:29;;;;;;;9.90;5.30;;;6.20;99.90;;;;;;5091469;28;20423;-73
2022/11/28 03:20:03;;;;;;;10.33;8.07;;;6.20;99.90;;;;;;5092899;28;20930;-71
2022/11/28 03:22:29;;;;;;;7.77;6.10;;;6.10;99.90;;;;;;5092838;28;20838;-71
2022/11/28 03:25:42;;;;;;;6.97;6.27;;;6.10;99.90;;;;;;5092207;28;20491;-72
2022/11/28 03:28:10;;;;;;;7.63;6.13;;;6.10;99.90;;;;;;5092925;28;20161;-72
2022/11/28 03:30:44;;;;;;;10.00;6.60;;;6.00;99.90;;;;;;5092814;28;20477;-71
2022/11/28 03:33:13;;;;;;;9.43;6.03;;;6.00;99.90;;;;;;5095208;28;20406;-71
2022/11/28 03:35:53;;;;;;;7.87;5.87;;;6.00;99.90;;;;;;5094706;28;20410;-71
2022/11/28 03:38:30;;;;;;;7.60;6.23;;;6.00;99.90;;;;;;5096568;28;20394;-71
2022/11/28 03:41:01;;;;;;;8.57;6.63;;;6.00;99.90;;;;;;5096611;28;20399;-73
2022/11/28 03:43:34;;;;;;;14.73;7.23;;;5.90;99.90;;;;;;5096336;28;20411;-72
2022/11/28 03:46:07;;;;;;;6.80;6.17;;;5.90;99.90;;;;;;5094908;28;20438;-70
2022/11/28 03:48:38;;;;;;;7.83;5.97;;;5.90;99.90;;;;;;5095284;28;20435;-71
2022/11/28 03:51:20;;;;;;;8.43;7.27;;;5.90;99.90;;;;;;5096344;28;20777;-71
2022/11/28 03:54:07;;;;;;;9.47;6.77;;;5.90;99.90;;;;;;5094262;28;20950;-72
2022/11/28 03:56:39;;;;;;;7.17;6.13;;;5.90;99.90;;;;;;5096206;28;20830;-73
2022/11/28 03:59:10;;;;;;;9.70;7.00;;;5.90;99.90;;;;;;5095188;28;20408;-71
2022/11/28 04:02:13;;;;;;;12.20;7.17;;;5.90;99.90;;;;;;5094713;28;20460;-71
2022/11/28 04:04:58;;;;;;;8.80;6.10;;;5.90;99.90;;;;;;5095506;28;20407;-72
2022/11/28 04:07:51;;;;;;;7.73;6.70;;;6.00;99.90;;;;;;5096013;28;20776;-72
2022/11/28 04:10:23;;;;;;;11.73;7.47;;;6.00;99.90;;;;;;5094692;28;20488;-71
2022/11/28 04:13:14;;;;;;;8.00;7.30;;;5.90;99.90;;;;;;5094285;28;20420;-71
2022/11/28 04:15:55;;;;;;;10.50;7.10;;;5.90;99.90;;;;;;5094889;28;20895;-70
2022/11/28 04:18:54;;;;;;;7.53;6.83;;;6.00;99.90;;;;;;5094584;28;20919;-71
2022/11/28 04:21:50;;;;;;;12.97;7.40;;;6.00;99.90;;;;;;5095894;28;20442;-71
2022/11/28 04:24:30;;;;;;;8.47;6.43;;;6.00;99.90;;;;;;5095175;28;20433;-71
2022/11/28 04:27:04;;;;;;;8.70;6.70;;;5.90;99.90;;;;;;5095587;28;20518;-72
2022/11/28 04:29:35;;;;;;;7.17;5.83;;;5.90;99.90;;;;;;5095710;28;20791;-74
2022/11/28 04:32:03;;;;;;;10.20;6.63;;;5.90;99.90;;;;;;5094360;28;20490;-72
2022/11/28 04:34:31;;;;;;;9.47;6.70;;;5.90;99.90;;;;;;5094838;28;20399;-72
2022/11/28 04:36:59;;;;;;;11.87;8.33;;;5.90;99.90;;;;;;5095450;28;20942;-73
2022/11/28 04:39:27;;;;;;;9.90;7.50;;;5.80;99.90;;;;;;5094286;28;20414;-72
2022/11/28 04:42:16;;;;;;;9.17;7.20;;;5.90;99.90;;;;;;5093998;28;20415;-74
2022/11/28 04:44:50;;;;;;;7.73;6.20;;;5.80;99.90;;;;;;5094816;28;20415;-71
2022/11/28 04:47:16;;;;;;;8.50;6.53;;;5.90;99.90;;;;;;5095283;28;20479;-72
2022/11/28 04:49:42;;;;;;;9.90;7.50;;;5.80;99.90;;;;;;5094791;28;20461;-73
2022/11/28 04:52:30;;;;;;;8.50;6.93;;;5.80;99.90;;;;;;5093940;28;20549;-72
2022/11/28 04:55:10;;;;;;;11.03;6.57;;;5.80;99.90;;;;;;5093187;28;20490;-73
2022/11/28 04:57:44;;;;;;;10.30;6.97;;;5.80;99.90;;;;;;5095065;28;20415;-72
2022/11/28 05:00:13;;;;;;;11.83;6.23;;;5.80;99.90;;;;;;5094081;28;20830;-70
2022/11/28 05:02:41;;;;;;;9.33;6.80;;;5.90;99.90;;;;;;5095050;28;20402;-72
2022/11/28 05:05:14;;;;;;;7.50;6.57;;;5.90;99.90;;;;;;5094315;28;20403;-72
2022/11/28 05:07:40;;;;;;;9.37;7.33;;;5.90;99.90;;;;;;5094786;28;20554;-70
2022/11/28 05:10:07;;;;;;;8.40;6.30;;;6.00;99.90;;;;;;5094466;28;21024;-73
2022/11/28 05:12:33;;;;;;;8.90;6.20;;;6.00;99.90;;;;;;5093968;28;20407;-71
2022/11/28 05:14:58;;;;;;;7.73;6.57;;;6.00;99.90;;;;;;5092824;28;20419;-70
2022/11/28 05:17:24;;;;;;;9.10;6.80;;;6.00;99.90;;;;;;5094890;28;20892;-70
2022/11/28 05:19:50;;;;;;;9.03;7.30;;;6.00;99.90;;;;;;5094700;28;20173;-72
2022/11/28 05:22:15;;;;;;;9.23;6.70;;;6.00;99.90;;;;;;5093132;28;20200;-71
2022/11/28 05:24:41;;;;;;;8.90;6.93;;;6.10;99.90;;;;;;5093954;28;20526;-68
2022/11/28 05:27:07;;;;;;;7.63;6.30;;;6.10;99.90;;;;;;5094166;28;20193;-69
2022/11/28 05:29:33;;;;;;;7.83;6.93;;;6.10;99.90;;;;;;5094494;28;20576;-72
2022/11/28 05:31:59;;;;;;;10.03;6.43;;;6.10;99.90;;;;;;5094543;28;20453;-69
2022/11/28 05:34:24;;;;;;;6.97;6.27;;;6.10;99.90;;;;;;5093691;28;20165;-68
2022/11/28 05:36:50;;;;;;;7.50;6.70;;;6.10;99.90;;;;;;5094369;28;20182;-69
2022/11/28 05:39:16;;;;;;;9.70;6.43;;;6.10;99.90;;;;;;5094298;28;20174;-68
2022/11/28 05:41:42;;;;;;;6.80;6.03;;;6.10;99.90;;;;;;5094250;28;20175;-70
2022/11/28 05:44:09;;;;;;;8.00;6.93;;;6.00;99.90;;;;;;5093355;28;20202;-70
2022/11/28 05:46:34;;;;;;;12.73;7.43;;;6.10;99.90;;;;;;5094082;28;20182;-69
2022/11/28 05:49:00;;;;;;;10.50;6.60;;;6.10;99.90;;;;;;5093973;28;20510;-72
2022/11/28 05:51:26;;;;;;;11.90;8.60;;;6.10;99.90;;;;;;5092896;28;20626;-71
2022/11/28 05:53:52;;;;;;;7.53;6.70;;;6.10;99.90;;;;;;5091896;28;20166;-72
2022/11/28 05:56:21;;;;;;;7.27;6.40;;;6.20;99.90;;;;;;5093713;28;20573;-70
2022/11/28 05:58:47;;;;;;;9.20;7.03;;;6.10;99.90;;;;;;5093758;28;20662;-71
2022/11/28 06:01:20;;;;;;;9.53;7.90;;;6.10;99.90;;;;;;5092510;28;20412;-70
2022/11/28 06:03:46;;;;;;;8.60;7.40;;;6.10;99.90;;;;;;5092005;28;20425;-71
2022/11/28 06:06:21;;;;;;;11.37;7.30;;;6.20;99.90;;;;;;5093825;28;20434;-73
2022/11/28 06:08:48;;;;;;;8.10;6.97;;;6.10;99.90;;;;;;5094202;28;20406;-69
2022/11/28 06:11:15;;;;;;;7.93;7.10;;;6.10;99.90;;;;;;5093617;28;20530;-70
2022/11/28 06:13:42;;;;;;;10.00;7.27;;;6.10;99.90;;;;;;5092925;28;20408;-70
2022/11/28 06:16:10;;;;;;;12.00;7.27;;;6.20;99.90;;;;;;5093314;28;20419;-73
2022/11/28 06:18:36;;;;;;;9.90;7.60;;;6.20;99.90;;;;;;5093455;28;20423;-72
2022/11/28 06:21:03;;;;;;;9.47;8.37;;;6.20;99.90;;;;;;5093453;28;20402;-69
2022/11/28 06:23:30;;;;;;;10.10;7.73;;;6.20;99.90;;;;;;5092349;28;20489;-71
2022/11/28 06:25:56;;;;;;;7.90;7.10;;;6.20;99.90;;;;;;5092949;28;20919;-72
2022/11/28 06:28:22;;;;;;;10.40;7.63;;;6.20;99.90;;;;;;5092154;28;20930;-73
2022/11/28 06:30:47;;;;;;;15.60;7.10;;;6.20;99.90;;;;;;5092067;28;20443;-72
2022/11/28 06:33:13;;;;;;;12.10;7.90;;;6.20;99.90;;;;;;5093399;28;20523;-70
2022/11/28 06:35:39;;;;;;;12.50;7.47;;;6.20;99.90;;;;;;5092196;28;20195;-70
2022/11/28 06:38:05;;;;;;;9.83;8.37;;;6.20;99.90;;;;;;5092420;28;20637;-70
2022/11/28 06:40:31;;;;;;;8.80;7.90;;;6.10;99.90;;;;;;5092052;28;20219;-70
2022/11/28 06:42:57;;;;;;;16.23;7.67;;;6.20;99.90;;;;;;5093192;28;20903;-72
2022/11/28 06:45:22;;;;;;;14.10;7.90;;;6.10;99.90;;;;;;5092687;28;20407;-69
2022/11/28 06:47:48;;;;;;;10.10;8.63;;;6.20;99.90;;;;;;5093122;28;20194;-72
2022/11/28 06:50:14;;;;;;;13.27;7.63;;;6.20;99.90;;;;;;5093070;28;20292;-72
2022/11/28 06:52:39;;;;;;;9.93;8.10;;;6.20;99.90;;;;;;5092019;28;20166;-72
2022/11/28 06:55:05;;;;;;;10.60;7.70;;;6.20;99.90;;;;;;5092175;28;20210;-72
2022/11/28 06:57:31;;;;;;;8.17;7.47;;;6.20;99.90;;;;;;5091833;28;20200;-71
2022/11/28 06:59:57;;;;;;;18.47;9.67;;;6.20;99.90;;;;;;5091850;28;20415;-69
2022/11/28 07:02:26;;;;;;;11.47;7.40;;;6.30;99.90;;;;;;5091999;28;20177;-72
2022/11/28 07:04:52;;;;;;;15.97;9.37;;;6.30;99.90;;;;;;5091089;28;20788;-73
2022/11/28 07:07:17;;;;;;;17.53;9.07;;;6.30;99.90;;;;;;5095568;28;20431;-71
2022/11/28 07:09:43;;;;;;;8.93;8.03;;;6.30;99.90;;;;;;5096040;28;20684;-70
2022/11/28 07:12:09;;;;;;;8.27;7.47;;;6.30;99.90;;;;;;5096976;28;20230;-72
2022/11/28 07:14:35;;;;;;;12.00;8.33;;;6.20;99.90;;;;;;5095390;28;20177;-70
2022/11/28 07:17:01;;;;;;;11.53;8.77;;;6.20;99.90;;;;;;5096938;28;20663;-72
2022/11/28 07:19:27;;;;;;;13.50;10.90;;;6.20;99.90;;;;;;5097245;28;20429;-73
2022/11/28 07:21:53;;;;;;;10.57;8.47;;;6.20;99.90;;;;;;5096991;28;20175;-72
2022/11/28 07:24:18;;;;;;;14.53;9.23;;;6.20;99.90;;;;;;5096252;28;20650;-71
2022/11/28 07:26:45;;;;;;;11.03;8.70;;;6.20;99.90;;;;;;5097430;28;20182;-71
2022/11/28 07:29:16;;;;;;;11.40;9.47;;;6.10;99.90;;;;;;5096635;28;20219;-72
2022/11/28 07:31:42;;;;;;;10.83;8.00;;;6.10;99.90;;;;;;5096564;28;20399;-70
2022/11/28 07:34:09;;;;;;;20.63;9.03;;;6.20;99.90;;;;;;5096229;28;20823;-70
2022/11/28 07:36:36;;;;;;;13.27;9.17;;;6.20;99.90;;;;;;5096618;28;20423;-69
2022/11/28 07:39:04;;;;;;;16.33;9.17;;;6.20;99.90;;;;;;5096936;28;20403;-71
2022/11/28 07:41:30;;;;;;;15.20;9.43;;;6.10;99.90;;;;;;5096591;28;20410;-69
2022/11/28 07:43:57;;;;;;;13.57;9.60;;;6.20;99.90;;;;;;5094712;28;20414;-70
2022/11/28 07:46:24;;;;;;;16.67;10.37;;;6.10;99.90;;;;;;5096444;28;20441;-71
2022/11/28 07:48:50;;;;;;;13.03;9.77;;;6.10;99.90;;;;;;5096488;28;20463;-70
2022/11/28 07:51:18;;;;;;;18.00;9.13;;;6.00;99.90;;;;;;5095938;28;20549;-72
2022/11/28 07:53:45;;;;;;;14.10;9.73;;;6.10;99.90;;;;;;5095668;28;20170;-72
2022/11/28 07:56:14;;;;;;;12.07;8.37;;;6.00;99.90;;;;;;5094933;28;20800;-73
2022/11/28 07:58:41;;;;;;;14.77;10.03;;;6.10;99.90;;;;;;5096333;28;20411;-70
2022/11/28 08:01:18;;;;;;;13.87;8.60;;;6.10;99.90;;;;;;5096236;28;20408;-72
2022/11/28 08:03:45;;;;;;;12.63;9.10;;;6.10;99.90;;;;;;5094231;28;20414;-71
2022/11/28 08:06:10;;;;;;;15.07;9.10;;;6.10;99.90;;;;;;5095168;28;20442;-72
2022/11/28 08:08:36;;;;;;;12.37;9.33;;;6.20;99.90;;;;;;5095765;28;20407;-71
2022/11/28 08:11:05;;;;;;;11.77;8.93;;;6.10;99.90;;;;;;5095931;28;20203;-71
2022/11/28 08:13:31;;;;;;;18.20;10.37;;;6.20;99.90;;;;;;5095780;28;20400;-72
2022/11/28 08:15:57;;;;;;;12.53;9.57;;;6.20;99.90;;;;;;5094412;28;20435;-71
2022/11/28 08:18:23;;;;;;;9.47;8.57;;;6.20;99.90;;;;;;5095147;28;20783;-72
2022/11/28 08:20:49;;;;;;;19.37;9.30;;;6.20;99.90;;;;;;5095939;28;20196;-71
2022/11/28 08:23:15;;;;;;;11.37;8.93;;;6.20;99.90;;;;;;5094773;28;20416;-71
2022/11/28 08:25:41;;;;;;;12.13;8.90;;;6.20;99.90;;;;;;5094489;28;20725;-71
2022/11/28 08:28:06;;;;;;;10.80;9.40;;;6.30;99.90;;;;;;5095808;28;20426;-70
2022/11/28 08:30:32;;;;;;;11.50;8.67;;;6.30;99.90;;;;;;5095619;28;20231;-72
2022/11/28 08:32:58;;;;;;;12.93;9.97;;;6.30;99.90;;;;;;5095695;28;20507;-70
2022/11/28 08:35:24;;;;;;;11.70;8.70;;;6.30;99.90;;;;;;5095095;28;20170;-72
2022/11/28 08:37:49;;;;;;;13.07;10.57;;;6.40;99.90;;;;;;5095395;28;20189;-73
2022/11/28 08:40:15;;;;;;;11.50;9.37;;;6.30;99.90;;;;;;5094209;28;20169;-70
2022/11/28 08:42:41;;;;;;;13.57;9.50;;;6.30;99.90;;;;;;5093966;28;20537;-70
2022/11/28 08:45:09;;;;;;;10.93;9.10;;;6.30;99.90;;;;;;5094748;28;20180;-72
2022/11/28 08:47:35;;;;;;;13.93;9.93;;;6.30;99.90;;;;;;5095295;28;20662;-73
2022/11/28 08:50:01;;;;;;;14.63;10.33;;;6.30;99.90;;;;;;5095109;28;20535;-72
2022/11/28 08:52:26;;;;;;;12.37;9.17;;;6.40;99.90;;;;;;5095237;28;20519;-71
2022/11/28 08:54:53;;;;;;;10.27;8.03;;;6.30;99.90;;;;;;5094569;28;20403;-72
2022/11/28 08:57:19;;;;;;;15.03;10.07;;;6.30;99.90;;;;;;5095071;28;20541;-70
2022/11/28 08:59:44;;;;;;;10.43;8.33;;;6.40;99.90;;;;;;5094713;28;20411;-72
2022/11/28 09:02:11;;;;;;;11.33;8.60;;;6.40;99.90;;;;;;5095112;28;20223;-71
2022/11/28 09:04:38;;;;;;;13.17;9.60;;;6.40;99.90;;;;;;5094406;28;20185;-70
2022/11/28 09:07:04;;;;;;;10.97;8.83;;;6.40;99.90;;;;;;5094849;28;20472;-70
2022/11/28 09:09:29;;;;;;;12.90;9.50;;;6.40;99.90;;;;;;5095013;28;20436;-72
2022/11/28 09:11:55;;;;;;;11.77;8.20;;;6.40;99.90;;;;;;5094821;28;20244;-70
2022/11/28 09:14:21;;;;;;;11.60;9.03;;;6.40;99.90;;;;;;5094119;28;20169;-71
2022/11/28 09:16:47;;;;;;;15.43;8.90;;;6.40;99.90;;;;;;5094559;28;20541;-71
2022/11/28 09:19:12;;;;;;;11.90;8.90;;;6.40;99.90;;;;;;5094689;28;20162;-72
2022/11/28 09:21:39;;;;;;;11.73;8.80;;;6.40;99.90;;;;;;5094605;28;20761;-71
2022/11/28 09:24:05;;;;;;;12.47;9.00;;;6.40;99.90;;;;;;5093995;28;20172;-72
2022/11/28 09:26:32;;;;;;;18.27;10.57;;;6.50;99.90;;;;;;5094416;28;20422;-70
2022/11/28 09:28:58;;;;;;;11.63;9.23;;;6.50;99.90;;;;;;5093622;28;20753;-70
2022/11/28 09:31:24;;;;;;;11.50;9.07;;;6.40;99.90;;;;;;5094409;28;20455;-72
2022/11/28 09:33:50;;;;;;;12.00;9.00;;;6.50;99.90;;;;;;5092487;28;20411;-72
2022/11/28 09:36:18;;;;;;;10.80;9.17;;;6.40;99.90;;;;;;5093904;28;20781;-70
2022/11/28 09:38:45;;;;;;;11.50;9.33;;;6.40;99.90;;;;;;5094534;28;20407;-70
2022/11/28 09:41:37;;;;;;;12.77;10.03;;;6.40;99.90;;;;;;5094391;28;20757;-70
2022/11/28 09:44:32;;;;;;;12.20;9.93;;;6.40;99.90;;;;;;5093637;28;20406;-72
2022/11/28 09:47:02;;;;;;;11.53;9.37;;;6.40;99.90;;;;;;5059239;28;20439;-72
2022/11/28 09:49:39;;;;;;;16.50;8.30;;;6.40;99.90;;;;;;5094075;28;20814;-69
2022/11/28 09:52:09;;;;;;;15.70;9.33;;;6.40;99.90;;;;;;5094201;28;20402;-73
2022/11/28 09:54:50;;;;;;;17.53;9.80;;;6.40;99.90;;;;;;5093105;28;20840;-72
2022/11/28 09:57:49;;;;;;;10.63;8.23;;;6.40;99.90;;;;;;5093901;28;20427;-70
2022/11/28 10:00:27;;;;;;;13.97;9.47;;;6.40;99.90;;;;;;5078904;28;20460;-73
2022/11/28 10:03:24;;;;;;;12.73;8.50;;;6.40;99.90;;;;;;5094005;28;20406;-72
2022/11/28 10:05:59;;;;;;;15.10;9.97;;;6.50;99.90;;;;;;5093262;28;20465;-70
2022/11/28 10:08:53;;;;;;;12.87;10.20;;;6.40;99.90;;;;;;5093744;28;20486;-71
2022/11/28 10:11:26;;;;;;;11.23;10.00;;;6.40;99.90;;;;;;5093735;28;20454;-71
2022/11/28 10:14:04;;;;;;;18.83;12.67;;;6.40;99.90;;;;;;5092825;28;20408;-71
2022/11/28 10:17:13;;;;;;;20.10;12.57;;;6.40;99.20;;;;;;5093514;28;20510;-70
2022/11/28 10:19:50;;;;;;;13.20;9.27;;;6.40;99.90;;;;;;5093569;28;20411;-72
2022/11/28 10:22:21;;;;;;;15.43;9.87;;;6.30;94.60;;;;;;5093524;28;20403;-71
2022/11/28 10:24:54;;;;;;;12.30;9.17;;;6.30;94.70;;;;;;5092958;28;20429;-72
2022/11/28 10:27:22;;;;;;;9.30;8.23;;;6.30;94.80;;;;;;5093530;28;20423;-72
2022/11/28 10:29:55;;;;;;;13.60;9.10;;;6.40;97.10;;;;;;5093381;28;20451;-72
2022/11/28 10:32:30;;;;;;;17.70;8.67;;;6.40;96.20;;;;;;5093112;28;20406;-73
2022/11/28 10:35:11;;;;;;;12.33;8.83;;;6.40;92.30;;;;;;5092695;28;20394;-72
2022/11/28 10:37:38;;;;;;;9.93;8.20;;;6.40;91.50;;;;;;5093285;28;20438;-71
2022/11/28 10:40:24;;;;;;;10.80;8.20;;;6.40;91.20;;;;;;5093092;28;20391;-71
2022/11/28 10:42:55;;;;;;;12.30;8.83;;;6.40;91.20;;;;;;5093229;28;20514;-72
2022/11/28 10:45:44;;;;;;;13.80;8.57;;;6.30;91.20;;;;;;5092743;28;20425;-72
2022/11/28 10:48:32;;;;;;;12.10;8.60;;;6.40;91.20;;;;;;5092978;28;20414;-70
2022/11/28 10:51:04;;;;;;;17.30;8.00;;;6.40;91.10;;;;;;5091643;28;20995;-73
2022/11/28 10:53:59;;;;;;;10.30;8.57;;;6.40;91.20;;;;;;5092916;28;20432;-72
2022/11/28 10:56:51;;;;;;;10.40;8.73;;;6.50;91.20;;;;;;5093074;28;20927;-71
2022/11/28 11:00:02;;;;;;;10.40;8.10;;;6.50;91.20;;;;;;5093129;28;20402;-70
2022/11/28 11:02:43;;;;;;;14.17;8.40;;;6.50;91.20;;;;;;4994611;28;20450;-72
2022/11/28 11:05:24;;;;;;;12.70;8.33;;;6.60;91.20;;;;;;5080800;28;20449;-72
2022/11/28 11:07:57;;;;;;;13.10;9.07;;;6.60;91.00;;;;;;5092892;28;20415;-71
2022/11/28 11:10:32;;;;;;;14.13;8.43;;;6.50;91.20;;;;;;5092959;28;20478;-70
2022/11/28 11:12:58;;;;;;;14.60;7.90;;;6.50;85.70;;;;;;5092872;28;20486;-72
2022/11/28 11:15:31;;;;;;;17.40;9.03;;;6.50;75.20;;;;;;5091086;28;20408;-72
2022/11/28 11:18:02;;;;;;;11.33;9.33;;;6.60;69.00;;;;;;5092960;28;20407;-72
2022/11/28 11:20:39;;;;;;;13.00;8.00;;;6.60;60.90;;;;;;5092760;28;20892;-72
2022/11/28 11:23:21;;;;;;;10.57;8.50;;;6.50;69.80;;;;;;5092585;28;20447;-72
2022/11/28 11:25:48;;;;;;;11.27;8.60;;;6.50;70.20;;;;;;5092252;28;20412;-71
2022/11/28 11:28:45;;;;;;;15.10;9.30;;;6.50;74.30;;;;;;5092865;28;20503;-73
2022/11/28 11:31:18;;;;;;;9.47;6.97;;;6.60;67.50;;;;;;5092851;28;20504;-73
2022/11/28 11:33:45;;;;;;;12.97;9.60;;;6.50;58.60;;;;;;5092106;28;20407;-71
2022/11/28 11:36:27;;;;;;;12.40;8.37;;;6.50;57.10;;;;;;5092826;28;20480;-73
2022/11/28 11:39:05;;;;;;;14.03;7.73;;;6.50;62.50;;;;;;5092489;28;20402;-71
2022/11/28 11:41:32;;;;;;;11.80;8.07;;;6.50;61.60;;;;;;5092743;28;20399;-71
2022/11/28 11:44:25;;;;;;;15.03;9.97;;;6.50;57.60;;;;;;5092072;28;20818;-72
2022/11/28 11:47:02;;;;;;;13.80;8.57;;;6.50;63.40;;;;;;5092668;28;20430;-73
2022/11/28 11:49:42;;;;;;;12.03;7.40;;;6.50;60.00;;;;;;5092491;28;20538;-73
2022/11/28 11:52:13;;;;;;;10.70;8.07;;;6.50;62.30;;;;;;5091554;28;20764;-71
2022/11/28 11:54:51;;;;;;;12.23;8.80;;;6.50;61.30;;;;;;5095880;28;20405;-72
2022/11/28 11:57:20;;;;;;;18.17;7.90;;;6.50;59.80;;;;;;5096008;28;20423;-71
2022/11/28 11:59:56;;;;;;;12.97;8.10;;;6.50;57.00;;;;;;5096279;28;20411;-72
2022/11/28 12:02:24;;;;;;;10.87;8.00;;;6.50;59.80;;;;;;5096276;28;20413;-70
2022/11/28 12:04:59;;;;;;;10.53;8.93;;;6.40;60.50;;;;;;5095682;28;20411;-71
2022/11/28 12:07:56;;;;;;;13.63;8.23;;;6.40;57.40;;;;;;5096035;28;20434;-71
2022/11/28 12:10:25;;;;;;;12.83;7.67;;;6.40;58.30;;;;;;5089957;28;20455;-71
2022/11/28 12:12:51;;;;;;;12.73;8.37;;;6.40;55.00;;;;;;5096195;28;20494;-72
2022/11/28 12:15:29;;;;;;;9.37;7.87;;;6.50;55.00;;;;;;5095592;28;20437;-72
2022/11/28 12:18:37;;;;;;;11.63;8.80;;;6.40;51.60;;;;;;5095959;28;20507;-71
2022/11/28 12:21:17;;;;;;;9.93;8.00;;;6.40;47.10;;;;;;5095890;28;20460;-72
2022/11/28 12:24:07;;;;;;;14.03;8.33;;;6.40;53.20;;;;;;5095144;28;20415;-71
2022/11/28 12:26:44;;;;;;;12.80;8.10;;;6.30;46.20;;;;;;5095731;28;20416;-71
2022/11/28 12:29:12;;;;;;;10.40;8.03;;;6.40;50.30;;;;;;5095617;28;20411;-72
2022/11/28 12:31:44;;;;;;;13.90;7.90;;;6.30;56.40;;;;;;5095534;28;20406;-72
2022/11/28 12:34:09;;;;;;;13.77;8.10;;;6.40;50.50;;;;;;5093821;28;20404;-70
2022/11/28 12:36:46;;;;;;;14.30;8.93;;;6.30;60.00;;;;;;5094188;28;20426;-71
2022/11/28 12:39:17;;;;;;;9.00;7.50;;;6.40;57.20;;;;;;5095520;28;20161;-71
2022/11/28 12:42:04;;;;;;;16.17;10.13;;;6.40;58.10;;;;;;5095298;28;20448;-73
2022/11/28 12:44:47;;;;;;;13.10;9.13;;;6.30;59.40;;;;;;5094871;28;20932;-72
2022/11/28 12:47:48;;;;;;;9.80;8.33;;;6.40;62.10;;;;;;5095334;28;20419;-72
2022/11/28 12:50:32;;;;;;;9.10;6.50;;;6.40;58.60;;;;;;5095228;28;20574;-72
2022/11/28 12:53:18;;;;;;;11.10;8.30;;;6.30;65.00;;;;;;5095272;28;20912;-72
2022/11/28 12:56:13;;;;;;;12.67;9.67;;;6.20;63.50;;;;;;5094374;28;20765;-72
2022/11/28 12:59:00;;;;;;;11.50;8.10;;;6.30;61.50;;;;;;5092755;28;20411;-71
2022/11/28 13:01:37;;;;;;;13.23;9.10;;;6.30;63.00;;;;;;5095228;28;20415;-71
2022/11/28 13:04:47;;;;;;;13.50;9.00;;;6.20;63.90;;;;;;5094264;28;20402;-70
2022/11/28 13:07:36;;;;;;;8.93;7.30;;;6.30;70.70;;;;;;5049974;28;20439;-71
2022/11/28 13:10:17;;;;;;;11.40;8.40;;;6.30;73.80;;;;;;5094818;28;20451;-70
2022/11/28 13:13:09;;;;;;;11.53;8.83;;;6.30;72.70;;;;;;5094655;28;20408;-72
2022/11/28 13:16:12;;;;;;;11.80;7.70;;;6.20;86.10;;;;;;5094162;28;20392;-72
2022/11/28 13:18:49;;;;;;;11.63;9.50;;;6.20;90.60;;;;;;5094883;28;20400;-70
2022/11/28 13:21:21;;;;;;;10.80;8.70;;;6.20;91.20;;;;;;5094591;28;20400;-72